LFRN/RNS METAR and TAF weather

Enter ICAO airport designator
Station Type Date Time Source
LFRN METAR 2020/04/01 22:30 UTC NOAA

LFRN 012230Z AUTO 33005KT CAVOK 04/00 Q1019 NOSIG


Station Type Date Time Source
LFRN Decoded METAR 2020/04/01 22:30 UTC NOAA

Rennes, France (LFRN) 48-04N 001-44W 37M
Apr 01, 2020 - 06:30 PM EDT / 2020.04.01 2230 UTC
Wind: from the NNW (330 degrees) at 6 MPH (5 KT):0
Visibility: greater than 7 mile(s):0
Temperature: 39 F (4 C)
Dew Point: 32 F (0 C)
Relative Humidity: 75%
Pressure (altimeter): 30.09 in. Hg (1019 hPa)
ob: LFRN 012230Z AUTO 33005KT CAVOK 04/00 Q1019 NOSIG
cycle: 22

Station Type Date Time Source
LFRN TAF 2020/04/01 18:21 UTC NOAA

TAF LFRN 011700Z 0118/0218 01012KT CAVOK
BECMG 0200/0202 31004KT
BECMG 0209/0211 01010KT

Example: see airport list